createdAt,value
2023-05-10T00:01:25.341Z,100.00
2023-05-10T00:03:53.363Z,100.00
2023-05-10T00:06:21.562Z,100.00
2023-05-10T00:08:49.460Z,100.00
2023-05-10T00:11:17.357Z,100.00
2023-05-10T00:13:46.249Z,100.00
2023-05-10T00:16:14.835Z,100.00
2023-05-10T00:18:42.842Z,100.00
2023-05-10T00:21:10.929Z,100.00
2023-05-10T00:23:39.134Z,100.00
2023-05-10T00:26:06.995Z,100.00
2023-05-10T00:28:35.038Z,100.00
2023-05-10T00:31:04.634Z,100.00
2023-05-10T00:33:32.457Z,100.00
2023-05-10T00:36:00.699Z,100.00
2023-05-10T00:38:28.747Z,100.00
2023-05-10T00:40:57.260Z,100.00
2023-05-10T00:43:31.077Z,100.00
2023-05-10T00:45:59.077Z,100.00
2023-05-10T00:48:27.048Z,100.00
2023-05-10T00:50:55.384Z,100.00
2023-05-10T00:53:23.363Z,100.00
2023-05-10T00:55:52.124Z,100.00
2023-05-10T00:58:20.760Z,100.00
2023-05-10T01:00:50.255Z,100.00
2023-05-10T01:03:18.402Z,100.00
2023-05-10T01:05:46.774Z,100.00
2023-05-10T01:08:15.270Z,100.00
2023-05-10T01:10:45.173Z,100.00
2023-05-10T01:13:14.618Z,100.00
2023-05-10T01:15:42.738Z,100.00
2023-05-10T01:18:11.086Z,100.00
2023-05-10T01:20:50.121Z,100.00
2023-05-10T01:23:29.745Z,100.00
2023-05-10T01:26:16.402Z,100.00
2023-05-10T01:29:08.938Z,100.00
2023-05-10T01:31:59.636Z,100.00
2023-05-10T01:34:59.792Z,100.00
2023-05-10T01:37:43.651Z,100.00
2023-05-10T01:40:30.525Z,100.00
2023-05-10T01:43:05.396Z,100.00
2023-05-10T01:45:38.876Z,100.00
2023-05-10T01:48:15.271Z,100.00
2023-05-10T01:50:47.640Z,100.00
2023-05-10T01:53:21.314Z,100.00
2023-05-10T01:55:53.754Z,100.00
2023-05-10T01:58:32.864Z,100.00
2023-05-10T02:01:04.768Z,100.00
2023-05-10T02:03:33.525Z,100.00
2023-05-10T02:06:02.641Z,100.00
2023-05-10T02:08:31.281Z,100.00
2023-05-10T02:11:00.556Z,100.00
2023-05-10T02:13:30.735Z,100.00
2023-05-10T02:16:00.360Z,100.00
2023-05-10T02:18:29.559Z,100.00
2023-05-10T02:20:59.043Z,100.00
2023-05-10T02:23:28.443Z,100.00
2023-05-10T02:26:01.338Z,100.00
2023-05-10T02:28:29.494Z,100.00
2023-05-10T02:30:58.165Z,100.00
2023-05-10T02:33:28.164Z,100.00
2023-05-10T02:35:57.339Z,100.00
2023-05-10T02:38:26.504Z,100.00
2023-05-10T02:40:57.880Z,100.00
2023-05-10T02:43:26.840Z,100.00
2023-05-10T02:45:54.921Z,100.00
2023-05-10T02:48:23.093Z,100.00
2023-05-10T02:50:53.557Z,100.00
2023-05-10T02:53:29.770Z,100.00
2023-05-10T02:56:08.142Z,100.00
2023-05-10T02:58:36.663Z,100.00
2023-05-10T03:01:05.322Z,100.00
2023-05-10T03:03:33.423Z,100.00
2023-05-10T03:06:01.586Z,100.00
2023-05-10T03:08:33.002Z,100.00
2023-05-10T03:11:57.944Z,100.00
2023-05-10T03:14:45.066Z,100.00
2023-05-10T03:17:57.917Z,100.00
2023-05-10T03:20:44.673Z,100.00
2023-05-10T03:23:26.029Z,100.00
2023-05-10T03:25:54.610Z,100.00
2023-05-10T03:28:26.049Z,100.00
2023-05-10T03:30:55.756Z,100.00
2023-05-10T03:33:24.061Z,100.00
2023-05-10T03:35:52.199Z,100.00
2023-05-10T03:38:20.327Z,100.00
2023-05-10T03:40:48.641Z,100.00
2023-05-10T03:43:16.592Z,100.00
2023-05-10T03:45:44.619Z,100.00
2023-05-10T03:48:14.787Z,100.00
2023-05-10T03:50:44.021Z,100.00
2023-05-10T03:53:13.464Z,100.00
2023-05-10T03:55:41.397Z,100.00
2023-05-10T03:58:12.968Z,100.00
2023-05-10T04:00:46.269Z,100.00
2023-05-10T04:03:15.596Z,100.00
2023-05-10T04:05:43.712Z,100.00
2023-05-10T04:08:11.845Z,100.00
2023-05-10T04:10:40.837Z,100.00
2023-05-10T04:13:09.249Z,100.00
2023-05-10T04:15:37.665Z,100.00
2023-05-10T04:18:07.986Z,100.00
2023-05-10T04:20:37.611Z,100.00
2023-05-10T04:23:05.602Z,100.00
2023-05-10T04:25:36.627Z,100.00
2023-05-10T04:28:05.552Z,100.00
2023-05-10T04:30:34.884Z,100.00
2023-05-10T04:33:05.754Z,100.00
2023-05-10T04:35:33.906Z,100.00
2023-05-10T04:38:01.861Z,100.00
2023-05-10T04:40:29.839Z,100.00
2023-05-10T04:42:57.906Z,100.00
2023-05-10T04:45:25.870Z,100.00
2023-05-10T04:47:53.874Z,100.00
2023-05-10T04:50:22.042Z,100.00
2023-05-10T04:52:50.170Z,100.00
2023-05-10T04:55:18.300Z,100.00
2023-05-10T04:57:46.623Z,100.00
2023-05-10T05:00:15.580Z,100.00
2023-05-10T05:02:47.442Z,100.00
2023-05-10T05:05:15.681Z,100.00
2023-05-10T05:07:43.843Z,100.00
2023-05-10T05:10:11.878Z,100.00
2023-05-10T05:12:40.174Z,100.00
2023-05-10T05:15:12.572Z,100.00
2023-05-10T05:18:30.952Z,100.00
2023-05-10T05:20:59.303Z,100.00
2023-05-10T05:23:27.533Z,100.00
2023-05-10T05:25:55.893Z,100.00
2023-05-10T05:28:24.471Z,100.00
2023-05-10T05:30:53.773Z,100.00
2023-05-10T05:33:21.972Z,100.00
2023-05-10T05:35:52.178Z,100.00
2023-05-10T05:38:20.475Z,100.00
2023-05-10T05:40:48.746Z,100.00
2023-05-10T05:43:17.493Z,100.00
2023-05-10T05:45:45.789Z,100.00
2023-05-10T05:48:13.990Z,100.00
2023-05-10T05:50:42.486Z,100.00
2023-05-10T05:53:10.878Z,100.00
2023-05-10T05:55:39.066Z,100.00
2023-05-10T05:58:07.472Z,100.00
2023-05-10T06:00:36.576Z,100.00
2023-05-10T06:03:05.073Z,100.00
2023-05-10T06:05:33.511Z,100.00
2023-05-10T06:08:02.307Z,100.00
2023-05-10T06:10:30.209Z,100.00
2023-05-10T06:12:58.612Z,99.99
2023-05-10T06:15:27.142Z,96.88
2023-05-10T06:17:55.504Z,94.52
2023-05-10T06:20:25.722Z,94.33
2023-05-10T06:22:53.786Z,94.47
2023-05-10T06:25:21.797Z,93.88
2023-05-10T06:27:53.900Z,94.93
2023-05-10T06:30:24.287Z,93.08
2023-05-10T06:32:53.054Z,92.01
2023-05-10T06:35:21.205Z,89.17
2023-05-10T06:37:49.433Z,91.07
2023-05-10T06:40:17.966Z,91.00
2023-05-10T06:42:47.603Z,88.64
2023-05-10T06:45:17.096Z,86.09
2023-05-10T06:47:45.882Z,86.83
2023-05-10T06:50:14.221Z,88.42
2023-05-10T06:52:42.418Z,91.20
2023-05-10T06:55:11.172Z,85.96
2023-05-10T06:57:39.137Z,83.59
2023-05-10T07:00:08.096Z,83.90
2023-05-10T07:02:36.706Z,81.94
2023-05-10T07:05:05.010Z,82.95
2023-05-10T07:07:33.722Z,81.43
2023-05-10T07:10:02.058Z,82.43
2023-05-10T07:12:30.520Z,78.38
2023-05-10T07:14:58.438Z,82.20
2023-05-10T07:17:27.111Z,83.25
2023-05-10T07:19:55.150Z,81.00
2023-05-10T07:22:23.157Z,83.53
2023-05-10T07:24:51.379Z,80.20
2023-05-10T07:27:19.363Z,73.38
2023-05-10T07:29:47.734Z,77.33
2023-05-10T07:32:16.017Z,73.13
2023-05-10T07:34:44.047Z,71.83
2023-05-10T07:37:12.534Z,72.06
2023-05-10T07:39:40.879Z,73.71
2023-05-10T07:42:09.362Z,73.01
2023-05-10T07:44:37.450Z,71.66
2023-05-10T07:47:05.838Z,68.74
2023-05-10T07:49:33.769Z,69.67
2023-05-10T07:52:01.850Z,63.53
2023-05-10T07:54:30.175Z,63.93
2023-05-10T07:56:58.121Z,64.04
2023-05-10T07:59:26.216Z,63.40
2023-05-10T08:01:54.993Z,66.16
2023-05-10T08:04:23.479Z,62.85
2023-05-10T08:06:51.589Z,62.90
2023-05-10T08:09:25.166Z,64.12
2023-05-10T08:11:53.554Z,66.01
2023-05-10T08:14:21.930Z,63.08
2023-05-10T08:16:50.086Z,59.27
2023-05-10T08:19:20.629Z,60.37
2023-05-10T08:21:49.721Z,58.96
2023-05-10T08:24:17.716Z,59.19
2023-05-10T08:26:45.771Z,58.83
2023-05-10T08:29:14.472Z,57.86
2023-05-10T08:31:43.124Z,59.00
2023-05-10T08:34:11.347Z,61.48
2023-05-10T08:36:39.716Z,60.33
2023-05-10T08:39:16.239Z,62.19
2023-05-10T08:41:55.275Z,61.57
2023-05-10T08:44:23.531Z,58.87
2023-05-10T08:46:54.839Z,60.19
2023-05-10T08:49:23.972Z,57.86
2023-05-10T08:51:57.073Z,57.68
2023-05-10T08:54:26.184Z,59.67
2023-05-10T08:56:54.626Z,57.60
2023-05-10T08:59:23.448Z,57.91
2023-05-10T09:01:54.708Z,58.85
2023-05-10T09:04:22.891Z,56.03
2023-05-10T09:06:50.878Z,56.01
2023-05-10T09:09:20.792Z,57.79
2023-05-10T09:11:49.291Z,59.66
2023-05-10T09:14:18.401Z,57.47
2023-05-10T09:16:46.750Z,56.48
2023-05-10T09:19:14.771Z,57.62
2023-05-10T09:21:43.331Z,58.34
2023-05-10T09:24:11.342Z,59.67
2023-05-10T09:26:51.831Z,57.76
2023-05-10T09:29:20.906Z,59.66
2023-05-10T09:31:53.534Z,59.04
2023-05-10T09:34:32.572Z,58.91
2023-05-10T09:37:05.415Z,58.84
2023-05-10T09:39:36.111Z,59.59
2023-05-10T09:42:11.619Z,59.65
2023-05-10T09:44:40.672Z,57.96
2023-05-10T09:47:09.060Z,56.47
2023-05-10T09:49:37.183Z,58.04
2023-05-10T09:52:08.802Z,57.71
2023-05-10T09:54:37.443Z,57.02
2023-05-10T09:57:05.296Z,57.14
2023-05-10T09:59:36.372Z,57.25
2023-05-10T10:02:04.580Z,57.04
2023-05-10T10:04:32.821Z,59.30
2023-05-10T10:07:04.292Z,58.57
2023-05-10T10:09:33.685Z,59.45
2023-05-10T10:12:03.189Z,56.79
2023-05-10T10:14:31.922Z,58.74
2023-05-10T10:19:36.734Z,57.36
2023-05-10T10:22:06.571Z,56.41
2023-05-10T10:24:35.008Z,56.48
2023-05-10T10:27:35.567Z,58.43
2023-05-10T10:30:38.720Z,59.02
2023-05-10T10:33:50.321Z,59.83
2023-05-10T10:36:18.336Z,57.10
2023-05-10T10:38:49.091Z,57.21
2023-05-10T10:41:44.531Z,54.18
2023-05-10T10:44:47.710Z,53.30
2023-05-10T10:47:20.230Z,54.19
2023-05-10T10:50:05.932Z,53.03
2023-05-10T10:52:41.114Z,52.17
2023-05-10T10:55:15.592Z,52.83
2023-05-10T10:58:06.818Z,55.37
2023-05-10T11:00:38.554Z,55.20
2023-05-10T11:03:20.243Z,56.21
2023-05-10T11:05:49.928Z,52.05
2023-05-10T11:08:32.277Z,52.27
2023-05-10T11:11:00.507Z,50.78
2023-05-10T11:13:36.349Z,52.04
2023-05-10T11:16:28.219Z,53.36
2023-05-10T11:19:08.349Z,53.45
2023-05-10T11:22:14.606Z,51.59
2023-05-10T11:24:59.848Z,53.99
2023-05-10T11:27:28.792Z,50.74
2023-05-10T11:29:56.825Z,50.75
2023-05-10T11:32:25.268Z,51.17
2023-05-10T11:34:54.642Z,51.92
2023-05-10T11:37:25.126Z,51.75
2023-05-10T11:39:56.429Z,49.82
2023-05-10T11:42:24.988Z,51.56
2023-05-10T11:44:54.241Z,52.44
2023-05-10T11:47:23.459Z,50.50
2023-05-10T11:49:53.222Z,49.57
2023-05-10T11:52:21.455Z,51.60
2023-05-10T11:54:54.261Z,50.07
2023-05-10T11:57:28.195Z,50.88
2023-05-10T11:59:58.424Z,50.32
2023-05-10T12:02:27.304Z,50.75
2023-05-10T12:04:57.565Z,49.41
2023-05-10T12:07:27.758Z,51.30
2023-05-10T12:10:17.656Z,48.98
2023-05-10T12:12:49.549Z,50.01
2023-05-10T12:15:26.074Z,48.66
2023-05-10T12:17:54.529Z,49.41
2023-05-10T12:20:25.453Z,47.66
2023-05-10T12:22:58.284Z,47.73
2023-05-10T12:25:33.164Z,47.71
2023-05-10T12:28:06.467Z,46.88
2023-05-10T12:30:37.129Z,48.34
2023-05-10T12:33:19.041Z,50.42
2023-05-10T12:35:54.368Z,49.84
2023-05-10T12:38:35.557Z,47.52
2023-05-10T12:41:10.047Z,46.37
2023-05-10T12:43:40.282Z,47.41
2023-05-10T12:46:14.055Z,46.48
2023-05-10T12:48:45.161Z,46.61
2023-05-10T12:51:16.694Z,47.56
2023-05-10T12:53:49.361Z,46.46
2023-05-10T12:56:18.090Z,46.53
2023-05-10T12:58:49.422Z,46.13
2023-05-10T13:01:17.485Z,46.64
2023-05-10T13:03:46.307Z,45.90
2023-05-10T13:06:15.511Z,45.64
2023-05-10T13:08:43.655Z,45.74
2023-05-10T13:11:12.070Z,46.93
2023-05-10T13:13:40.318Z,45.93
2023-05-10T13:16:08.617Z,47.87
2023-05-10T13:18:37.074Z,46.76
2023-05-10T13:21:06.738Z,45.42
2023-05-10T13:23:35.874Z,47.78
2023-05-10T13:26:04.208Z,45.79
2023-05-10T13:28:32.696Z,45.50
2023-05-10T13:31:01.389Z,47.23
2023-05-10T13:33:29.547Z,47.94
2023-05-10T13:35:57.722Z,45.66
2023-05-10T13:38:25.905Z,46.59
2023-05-10T13:40:54.184Z,47.58
2023-05-10T13:43:22.312Z,45.77
2023-05-10T13:45:50.311Z,45.77
2023-05-10T13:48:18.513Z,46.13
2023-05-10T13:50:47.417Z,45.63
2023-05-10T13:53:15.720Z,46.56
2023-05-10T13:55:44.080Z,45.59
2023-05-10T13:58:12.397Z,47.65
2023-05-10T14:00:40.410Z,46.02
2023-05-10T14:03:10.576Z,46.06
2023-05-10T14:05:38.812Z,47.75
2023-05-10T14:08:06.974Z,46.11
2023-05-10T14:10:35.064Z,45.15
2023-05-10T14:13:04.577Z,45.08
2023-05-10T14:15:32.641Z,45.30
2023-05-10T14:18:01.670Z,45.65
2023-05-10T14:20:30.288Z,47.63
2023-05-10T14:22:58.520Z,45.29
2023-05-10T14:25:27.052Z,45.92
2023-05-10T14:27:55.830Z,45.32
2023-05-10T14:30:23.984Z,44.38
2023-05-10T14:32:52.138Z,44.42
2023-05-10T14:35:21.419Z,44.48
2023-05-10T14:37:49.896Z,45.00
2023-05-10T14:40:18.255Z,45.07
2023-05-10T14:42:46.384Z,46.43
2023-05-10T14:45:14.917Z,45.50
2023-05-10T14:47:43.175Z,45.43
2023-05-10T14:50:16.638Z,43.91
2023-05-10T14:52:53.496Z,44.44
2023-05-10T14:55:21.751Z,43.88
2023-05-10T14:57:51.646Z,44.24
2023-05-10T15:00:20.509Z,44.14
2023-05-10T15:02:49.758Z,43.69
2023-05-10T15:05:19.006Z,43.92
2023-05-10T15:07:47.698Z,44.66
2023-05-10T15:10:16.873Z,45.35
2023-05-10T15:12:44.953Z,44.88
2023-05-10T15:15:13.110Z,44.97
2023-05-10T15:17:43.208Z,45.20
2023-05-10T15:20:14.398Z,45.33
2023-05-10T15:22:42.740Z,45.35
2023-05-10T15:25:11.272Z,44.54
2023-05-10T15:27:39.772Z,45.89
2023-05-10T15:30:08.898Z,45.98
2023-05-10T15:32:37.481Z,44.45
2023-05-10T15:35:06.499Z,45.74
2023-05-10T15:37:34.948Z,44.90
2023-05-10T15:40:06.475Z,44.97
2023-05-10T15:42:34.636Z,44.37
2023-05-10T15:45:02.880Z,45.13
2023-05-10T15:47:32.232Z,45.76
2023-05-10T15:50:00.449Z,45.50
2023-05-10T15:52:28.494Z,44.68
2023-05-10T15:54:56.707Z,44.86
2023-05-10T15:57:24.846Z,45.75
2023-05-10T15:59:53.699Z,45.94
2023-05-10T16:02:22.903Z,44.96
2023-05-10T16:04:51.841Z,46.29
2023-05-10T16:07:20.035Z,45.95
2023-05-10T16:09:49.657Z,46.11
2023-05-10T16:12:17.756Z,45.77
2023-05-10T16:14:46.565Z,45.46
2023-05-10T16:17:15.682Z,45.61
2023-05-10T16:19:43.958Z,46.14
2023-05-10T16:22:12.131Z,46.19
2023-05-10T16:24:40.805Z,45.76
2023-05-10T16:27:08.832Z,47.16
2023-05-10T16:29:36.956Z,46.63
2023-05-10T16:32:05.292Z,46.01
2023-05-10T16:34:33.309Z,46.93
2023-05-10T16:37:01.620Z,46.75
2023-05-10T16:39:29.818Z,46.44
2023-05-10T16:41:58.124Z,46.84
2023-05-10T16:44:26.311Z,47.00
2023-05-10T16:46:55.355Z,47.56
2023-05-10T16:49:25.315Z,47.82
2023-05-10T16:51:54.660Z,47.83
2023-05-10T16:54:23.056Z,47.50
2023-05-10T16:56:51.068Z,48.14
2023-05-10T16:59:20.721Z,47.70
2023-05-10T17:01:50.413Z,48.07
2023-05-10T17:04:18.519Z,47.88
2023-05-10T17:06:47.907Z,47.71
2023-05-10T17:09:17.140Z,47.90
2023-05-10T17:11:46.880Z,48.46
2023-05-10T17:14:15.204Z,48.96
2023-05-10T17:16:43.928Z,48.76
2023-05-10T17:19:12.098Z,48.93
2023-05-10T17:21:40.608Z,49.53
2023-05-10T17:24:10.618Z,49.50
2023-05-10T17:26:38.959Z,49.75
2023-05-10T17:29:09.783Z,50.31
2023-05-10T17:31:38.144Z,50.57
2023-05-10T17:34:06.713Z,50.99
2023-05-10T17:36:38.910Z,51.44
2023-05-10T17:39:08.028Z,52.05
2023-05-10T17:41:37.286Z,52.35
2023-05-10T17:44:05.438Z,53.09
2023-05-10T17:46:33.737Z,53.87
2023-05-10T17:49:01.870Z,54.76
2023-05-10T17:51:30.099Z,55.26
2023-05-10T17:53:58.649Z,55.74
2023-05-10T17:56:27.259Z,55.94
2023-05-10T17:58:55.631Z,56.73
2023-05-10T18:01:23.965Z,57.70
2023-05-10T18:03:53.029Z,57.84
2023-05-10T18:06:21.903Z,58.36
2023-05-10T18:08:52.618Z,58.99
2023-05-10T18:11:21.943Z,59.50
2023-05-10T18:13:50.899Z,59.77
2023-05-10T18:16:22.261Z,60.42
2023-05-10T18:18:50.976Z,61.01
2023-05-10T18:21:19.361Z,61.19
2023-05-10T18:23:48.127Z,61.86
2023-05-10T18:26:18.463Z,62.28
2023-05-10T18:28:48.404Z,62.68
2023-05-10T18:31:18.377Z,63.48
2023-05-10T18:33:47.015Z,63.85
2023-05-10T18:36:17.234Z,64.72
2023-05-10T18:38:46.460Z,65.41
2023-05-10T18:41:15.065Z,66.08
2023-05-10T18:43:43.335Z,66.59
2023-05-10T18:46:11.995Z,66.48
2023-05-10T18:48:40.828Z,66.83
2023-05-10T18:51:09.019Z,66.89
2023-05-10T18:53:37.933Z,67.65
2023-05-10T18:56:07.360Z,67.77
2023-05-10T18:58:36.288Z,67.97
2023-05-10T19:01:04.933Z,68.35
2023-05-10T19:03:33.502Z,68.75
2023-05-10T19:06:01.489Z,69.20
2023-05-10T19:08:30.494Z,69.21
2023-05-10T19:10:58.944Z,69.81
2023-05-10T19:13:28.471Z,69.99
2023-05-10T19:16:14.102Z,70.48
2023-05-10T19:18:45.160Z,70.46
2023-05-10T19:21:17.333Z,70.18
2023-05-10T19:23:47.528Z,71.08
2023-05-10T19:26:15.967Z,70.95
2023-05-10T19:28:44.134Z,71.30
2023-05-10T19:31:12.335Z,71.65
2023-05-10T19:33:40.858Z,71.80
2023-05-10T19:36:09.235Z,72.25
2023-05-10T19:38:38.153Z,72.56
2023-05-10T19:41:06.740Z,72.89
2023-05-10T19:43:37.565Z,73.15
2023-05-10T19:46:07.076Z,73.56
2023-05-10T19:48:35.552Z,73.55
2023-05-10T19:51:07.826Z,74.48
2023-05-10T19:53:36.957Z,74.40
2023-05-10T19:56:07.281Z,74.80
2023-05-10T19:58:35.600Z,75.18
2023-05-10T20:01:06.053Z,75.86
2023-05-10T20:03:35.665Z,76.54
2023-05-10T20:06:04.525Z,76.81
2023-05-10T20:08:33.012Z,77.23
2023-05-10T20:11:04.486Z,77.21
2023-05-10T20:13:34.487Z,77.98
2023-05-10T20:16:03.957Z,77.94
2023-05-10T20:18:32.056Z,78.24
2023-05-10T20:21:01.571Z,78.25
2023-05-10T20:23:29.805Z,78.81
2023-05-10T20:25:58.478Z,78.41
2023-05-10T20:28:27.273Z,78.89
2023-05-10T20:30:56.308Z,78.93
2023-05-10T20:33:25.592Z,79.30
2023-05-10T20:35:53.711Z,79.25
2023-05-10T20:38:22.001Z,79.53
2023-05-10T20:40:49.926Z,80.18
2023-05-10T20:43:19.079Z,80.73
2023-05-10T20:45:47.949Z,80.65
2023-05-10T20:48:17.124Z,81.37
2023-05-10T20:50:45.437Z,81.82
2023-05-10T20:53:18.616Z,82.54
2023-05-10T20:55:47.010Z,82.74
2023-05-10T20:58:15.401Z,83.25
2023-05-10T21:00:43.751Z,83.00
2023-05-10T21:03:12.388Z,83.79
2023-05-10T21:05:40.795Z,83.70
2023-05-10T21:08:08.922Z,84.31
2023-05-10T21:10:37.341Z,83.88
2023-05-10T21:13:05.544Z,84.10
2023-05-10T21:15:33.510Z,84.29
2023-05-10T21:18:02.145Z,84.60
2023-05-10T21:20:31.272Z,84.99
2023-05-10T21:22:59.298Z,84.98
2023-05-10T21:25:27.636Z,85.49
2023-05-10T21:27:56.148Z,85.89
2023-05-10T21:30:24.450Z,85.94
2023-05-10T21:32:54.035Z,86.90
2023-05-10T21:35:22.056Z,88.04
2023-05-10T21:37:50.215Z,89.43
2023-05-10T21:40:20.479Z,89.32
2023-05-10T21:42:52.634Z,90.47
2023-05-10T21:45:21.016Z,90.77
2023-05-10T21:47:49.436Z,91.63
2023-05-10T21:50:18.373Z,92.04
2023-05-10T21:52:46.803Z,92.75
2023-05-10T21:55:15.746Z,93.54
2023-05-10T21:57:44.948Z,94.26
2023-05-10T22:00:14.065Z,94.42
2023-05-10T22:02:42.729Z,95.08
2023-05-10T22:05:11.553Z,95.86
2023-05-10T22:07:40.435Z,96.06
2023-05-10T22:10:09.657Z,96.44
2023-05-10T22:12:38.129Z,96.94
2023-05-10T22:15:10.329Z,97.62
2023-05-10T22:17:40.548Z,97.92
2023-05-10T22:20:10.062Z,98.16
2023-05-10T22:22:38.114Z,98.56
2023-05-10T22:25:07.787Z,98.52
2023-05-10T22:27:36.302Z,98.82
2023-05-10T22:30:06.129Z,99.06
2023-05-10T22:32:34.314Z,99.86
2023-05-10T22:35:04.448Z,100.00
2023-05-10T22:37:32.336Z,100.00
2023-05-10T22:40:00.344Z,100.00
2023-05-10T22:42:28.557Z,100.00
2023-05-10T22:44:56.634Z,100.00
2023-05-10T22:47:24.560Z,100.00
2023-05-10T22:49:52.557Z,100.00
2023-05-10T22:52:20.549Z,100.00
2023-05-10T22:54:48.902Z,100.00
2023-05-10T22:57:17.490Z,100.00
2023-05-10T22:59:45.493Z,100.00
2023-05-10T23:02:14.388Z,100.00
2023-05-10T23:04:42.921Z,100.00
2023-05-10T23:07:11.572Z,100.00
2023-05-10T23:09:39.569Z,100.00
2023-05-10T23:12:08.019Z,100.00
2023-05-10T23:14:35.953Z,100.00
2023-05-10T23:17:03.958Z,100.00
2023-05-10T23:19:31.918Z,100.00
2023-05-10T23:21:59.721Z,100.00
2023-05-10T23:24:27.700Z,100.00
2023-05-10T23:26:55.815Z,100.00
2023-05-10T23:29:26.283Z,100.00
2023-05-10T23:31:54.368Z,100.00
2023-05-10T23:34:22.542Z,100.00
2023-05-10T23:36:50.467Z,100.00
2023-05-10T23:39:18.297Z,100.00
2023-05-10T23:41:46.906Z,100.00
2023-05-10T23:44:14.908Z,100.00
2023-05-10T23:46:42.912Z,100.00
2023-05-10T23:49:11.258Z,100.00
2023-05-10T23:51:39.224Z,100.00
2023-05-10T23:54:07.120Z,100.00
2023-05-10T23:56:35.324Z,100.00
2023-05-10T23:59:03.206Z,100.00
